Navibreeze — V4JJ2 — position and weather

sailwx.info

Track history (hours):
 
Tides and Currents Weather Stations Pressure Air Temp Water Temp Dewpoint Dewpoint Depression Visibility Wind Speed Wind Dir Waves Ship Positions

Navibreeze

Last reported at 2014-Nov-09 19:07 UTC. Time now 2014-Nov-21 02:31 UTC.
Position N 40°52' E 028°56'.
Warning: this ship's position is 11 days out of date.

; draft 3.9 m.

Type: Cargo ship. MMSI: 341071000.

Date/timePositionNaut miles runAvg speedWind from/ knotsBaromVisibWave heightAir tempDewpointWater temp
2014-Nov-09 19:07N 40°52' E 028°56'4 6.9
2014-Nov-09 18:33N 40°56' E 028°56'34 5.6
2014-Nov-09 12:30N 41°22' E 029°25'5 1.2
2014-Nov-09 08:10N 41°27' E 029°28'4 6.4
2014-Nov-09 07:33N 41°28' E 029°33'275 6.9
2014-Nov-07 15:33N 43°37' E 035°03'18 7.5
2014-Nov-07 13:10N 43°51' E 035°19'5 7.5
2014-Nov-07 12:33N 43°54' E 035°23'7 7.5
2014-Nov-07 11:34N 43°60' E 035°30'7 7.5
2014-Nov-07 10:34N 44°05' E 035°38'7 7.4
2014-Nov-07 09:33N 44°11' E 035°43'7 7.3
2014-Nov-07 08:33N 44°17' E 035°49'7 7.3
2014-Nov-07 07:33N 44°23' E 035°55'8 7.6
2014-Nov-07 06:33N 44°29' E 036°02'8 8.0
2014-Nov-07 05:33N 44°35' E 036°09'  
Track history (hours):
 
Tides and Currents Weather Stations Pressure Air Temp Water Temp Dewpoint Dewpoint Depression Visibility Wind Speed Wind Dir Waves Ship Positions

Navibreeze

Last reported at 2014-Nov-09 19:07 UTC. Time now 2014-Nov-21 02:31 UTC.
Position N 40°52' E 028°56'.
Warning: this ship's position is 11 days out of date.

; draft 3.9 m.

Type: Cargo ship. MMSI: 341071000.

Date/timePositionNaut miles runAvg speedWind from/ knotsBaromVisibWave heightAir tempDewpointWater temp
2014-Nov-09 19:07N 40°52' E 028°56'4 6.9
2014-Nov-09 18:33N 40°56' E 028°56'34 5.6
2014-Nov-09 12:30N 41°22' E 029°25'5 1.2
2014-Nov-09 08:10N 41°27' E 029°28'4 6.4
2014-Nov-09 07:33N 41°28' E 029°33'275 6.9
2014-Nov-07 15:33N 43°37' E 035°03'18 7.5
2014-Nov-07 13:10N 43°51' E 035°19'5 7.5
2014-Nov-07 12:33N 43°54' E 035°23'7 7.5
2014-Nov-07 11:34N 43°60' E 035°30'7 7.5
2014-Nov-07 10:34N 44°05' E 035°38'7 7.4
2014-Nov-07 09:33N 44°11' E 035°43'7 7.3
2014-Nov-07 08:33N 44°17' E 035°49'7 7.3
2014-Nov-07 07:33N 44°23' E 035°55'8 7.6
2014-Nov-07 06:33N 44°29' E 036°02'8 8.0
2014-Nov-07 05:33N 44°35' E 036°09'  

Dump ship's entire track history